createdAt,value
2017-12-30T00:00:54.434Z,1011.22
2017-12-30T00:01:54.736Z,1011.23
2017-12-30T00:02:54.716Z,1011.2
2017-12-30T00:03:54.790Z,1011.29
2017-12-30T00:04:54.780Z,1011.25
2017-12-30T00:05:54.909Z,1011.25
2017-12-30T00:06:54.042Z,1011.29
2017-12-30T00:07:54.943Z,1011.32
2017-12-30T00:08:54.193Z,1011.35
2017-12-30T00:09:54.479Z,1011.4
2017-12-30T00:10:54.620Z,1011.34
2017-12-30T00:11:54.931Z,1011.41
2017-12-30T00:12:54.323Z,1011.5
2017-12-30T00:13:54.433Z,1011.56
2017-12-30T00:14:54.510Z,1011.54
2017-12-30T00:15:54.481Z,1011.56
2017-12-30T00:16:54.818Z,1011.56
2017-12-30T00:17:54.926Z,1011.58
2017-12-30T00:18:55.139Z,1011.59
2017-12-30T00:19:57.811Z,1011.62
2017-12-30T00:20:56.993Z,1011.6
2017-12-30T00:21:57.007Z,1011.59
2017-12-30T00:22:55.103Z,1011.61
2017-12-30T00:23:54.749Z,1011.65
2017-12-30T00:24:55.328Z,1011.65
2017-12-30T00:25:56.046Z,1011.66
2017-12-30T00:26:54.825Z,1011.62
2017-12-30T00:27:54.907Z,1011.67
2017-12-30T00:28:55.145Z,1011.64
2017-12-30T00:29:55.395Z,1011.66
2017-12-30T00:30:56.283Z,1011.66
2017-12-30T00:31:55.264Z,1011.68
2017-12-30T00:32:55.385Z,1011.63
2017-12-30T00:33:57.129Z,1011.63
2017-12-30T00:34:56.634Z,1011.68
2017-12-30T00:35:55.760Z,1011.66
2017-12-30T00:36:55.552Z,1011.7
2017-12-30T00:37:54.714Z,1011.71
2017-12-30T00:38:54.749Z,1011.72
2017-12-30T00:39:54.764Z,1011.7
2017-12-30T00:40:55.966Z,1011.76
2017-12-30T00:41:55.494Z,1011.77
2017-12-30T00:42:55.608Z,1011.78
2017-12-30T00:43:55.222Z,1011.86
2017-12-30T00:44:54.769Z,1011.83
2017-12-30T00:45:55.312Z,1011.88
2017-12-30T00:46:54.256Z,1011.89
2017-12-30T00:47:54.805Z,1011.92
2017-12-30T00:48:54.938Z,1011.95
2017-12-30T00:49:54.920Z,1011.99
2017-12-30T00:50:54.966Z,1011.95
2017-12-30T00:51:53.987Z,1011.99
2017-12-30T00:52:54.919Z,1011.93
2017-12-30T00:53:55.703Z,1011.93
2017-12-30T00:54:54.861Z,1011.93
2017-12-30T00:55:54.485Z,1011.88
2017-12-30T00:56:56.207Z,1011.95
2017-12-30T00:57:54.634Z,1011.95
2017-12-30T00:58:54.559Z,1011.92
2017-12-30T00:59:54.603Z,1011.98
2017-12-30T01:00:54.499Z,1011.99
2017-12-30T01:01:54.583Z,1012.03
2017-12-30T01:02:54.769Z,1012.05
2017-12-30T01:03:55.231Z,1012.07
2017-12-30T01:04:54.241Z,1012.09
2017-12-30T01:05:54.264Z,1012.11
2017-12-30T01:06:54.456Z,1012.07
2017-12-30T01:07:54.257Z,1012.15
2017-12-30T01:08:54.284Z,1012.18
2017-12-30T01:09:54.371Z,1012.16
2017-12-30T01:10:54.432Z,1012.21
2017-12-30T01:11:54.384Z,1012.22
2017-12-30T01:12:54.357Z,1012.29
2017-12-30T01:13:54.296Z,1012.26
2017-12-30T01:14:54.382Z,1012.3
2017-12-30T01:15:54.342Z,1012.29
2017-12-30T01:16:54.362Z,1012.32
2017-12-30T01:17:54.392Z,1012.3
2017-12-30T01:18:54.539Z,1012.27
2017-12-30T01:19:54.596Z,1012.27
2017-12-30T01:20:54.677Z,1012.32
2017-12-30T01:21:54.579Z,1012.26
2017-12-30T01:22:54.820Z,1012.28
2017-12-30T01:23:54.958Z,1012.27
2017-12-30T01:24:55.024Z,1012.28
2017-12-30T01:25:55.045Z,1012.28
2017-12-30T01:26:55.138Z,1012.27
2017-12-30T01:27:55.216Z,1012.28
2017-12-30T01:28:55.366Z,1012.29
2017-12-30T01:29:54.511Z,1012.33
2017-12-30T01:30:54.469Z,1012.33
2017-12-30T01:31:54.493Z,1012.36
2017-12-30T01:32:54.437Z,1012.31
2017-12-30T01:33:54.319Z,1012.31
2017-12-30T01:34:55.265Z,1012.33
2017-12-30T01:35:54.323Z,1012.39
2017-12-30T01:36:55.263Z,1012.42
2017-12-30T01:37:54.336Z,1012.43
2017-12-30T01:38:54.361Z,1012.42
2017-12-30T01:39:54.468Z,1012.45
2017-12-30T01:40:54.552Z,1012.46
2017-12-30T01:41:54.817Z,1012.43
2017-12-30T01:42:54.857Z,1012.48
2017-12-30T01:43:54.842Z,1012.52
2017-12-30T01:44:54.849Z,1012.5
2017-12-30T01:45:55.183Z,1012.47
2017-12-30T01:46:55.227Z,1012.51
2017-12-30T01:49:02.929Z,1012.51
2017-12-30T01:49:54.995Z,1012.5
2017-12-30T01:50:54.223Z,1012.49
2017-12-30T01:51:55.151Z,1012.48
2017-12-30T01:52:55.128Z,1012.47
2017-12-30T01:53:54.893Z,1012.46
2017-12-30T01:54:55.000Z,1012.49
2017-12-30T01:55:54.874Z,1012.47
2017-12-30T01:56:54.665Z,1012.49
2017-12-30T01:57:54.569Z,1012.44
2017-12-30T01:58:54.680Z,1012.45
2017-12-30T02:01:59.922Z,1012.38
2017-12-30T02:02:55.088Z,1012.4
2017-12-30T02:03:54.955Z,1012.35
2017-12-30T02:04:54.867Z,1012.36
2017-12-30T02:05:54.941Z,1012.29
2017-12-30T02:06:54.888Z,1012.35
2017-12-30T02:07:54.811Z,1012.35
2017-12-30T02:08:54.571Z,1012.36
2017-12-30T02:09:54.397Z,1012.36
2017-12-30T02:10:54.493Z,1012.33
2017-12-30T02:11:54.341Z,1012.3
2017-12-30T02:12:54.459Z,1012.28
2017-12-30T02:13:54.489Z,1012.37
2017-12-30T02:14:54.705Z,1012.36
2017-12-30T02:15:54.716Z,1012.29
2017-12-30T02:16:54.988Z,1012.24
2017-12-30T02:17:55.247Z,1012.26
2017-12-30T02:18:54.917Z,1012.27
2017-12-30T02:19:54.887Z,1012.25
2017-12-30T02:20:54.782Z,1012.26
2017-12-30T02:21:54.819Z,1012.33
2017-12-30T02:22:54.950Z,1012.32
2017-12-30T02:23:54.773Z,1012.3
2017-12-30T02:24:54.621Z,1012.31
2017-12-30T02:25:54.424Z,1012.28
2017-12-30T02:26:54.584Z,1012.26
2017-12-30T02:27:54.589Z,1012.24
2017-12-30T02:28:54.580Z,1012.22
2017-12-30T02:29:54.624Z,1012.19
2017-12-30T02:30:55.214Z,1012.14
2017-12-30T02:31:54.284Z,1012.09
2017-12-30T02:32:54.195Z,1012.16
2017-12-30T02:33:55.314Z,1012.11
2017-12-30T02:34:54.569Z,1012.09
2017-12-30T02:35:54.660Z,1012.07
2017-12-30T02:36:54.792Z,1012.12
2017-12-30T02:37:54.829Z,1012.05
2017-12-30T02:38:54.748Z,1012.03
2017-12-30T02:39:54.620Z,1011.95
2017-12-30T02:40:54.749Z,1011.92
2017-12-30T02:41:54.672Z,1011.89
2017-12-30T02:42:54.618Z,1011.86
2017-12-30T02:43:54.543Z,1011.85
2017-12-30T02:44:54.508Z,1011.77
2017-12-30T02:45:54.362Z,1011.77
2017-12-30T02:46:54.330Z,1011.73
2017-12-30T02:47:54.514Z,1011.74
2017-12-30T02:48:54.707Z,1011.75
2017-12-30T02:49:54.659Z,1011.71
2017-12-30T02:50:55.598Z,1011.67
2017-12-30T02:51:55.605Z,1011.63
2017-12-30T02:52:55.565Z,1011.6
2017-12-30T02:53:54.902Z,1011.57
2017-12-30T02:54:54.859Z,1011.57
2017-12-30T02:55:54.920Z,1011.55
2017-12-30T02:56:54.900Z,1011.56
2017-12-30T02:57:54.857Z,1011.52
2017-12-30T02:58:54.750Z,1011.54
2017-12-30T02:59:54.618Z,1011.5
2017-12-30T03:00:55.477Z,1011.48
2017-12-30T03:01:55.461Z,1011.46
2017-12-30T03:02:55.447Z,1011.43
2017-12-30T03:03:55.486Z,1011.41
2017-12-30T03:04:55.527Z,1011.41
2017-12-30T03:05:55.833Z,1011.39
2017-12-30T03:06:54.956Z,1011.35
2017-12-30T03:07:54.907Z,1011.35
2017-12-30T03:08:54.832Z,1011.33
2017-12-30T03:09:54.675Z,1011.32
2017-12-30T03:10:54.704Z,1011.33
2017-12-30T03:11:54.638Z,1011.3
2017-12-30T03:12:55.410Z,1011.28
2017-12-30T03:13:55.508Z,1011.29
2017-12-30T03:14:55.574Z,1011.33
2017-12-30T03:15:54.632Z,1011.35
2017-12-30T03:16:55.638Z,1011.36
2017-12-30T03:17:54.757Z,1011.39
2017-12-30T03:18:54.803Z,1011.41
2017-12-30T03:19:55.120Z,1011.37
2017-12-30T03:20:54.931Z,1011.35
2017-12-30T03:21:54.961Z,1011.36
2017-12-30T03:22:54.965Z,1011.39
2017-12-30T03:23:55.010Z,1011.41
2017-12-30T03:24:55.003Z,1011.4
2017-12-30T03:25:54.963Z,1011.4
2017-12-30T03:26:54.779Z,1011.36
2017-12-30T03:27:55.724Z,1011.31
2017-12-30T03:28:55.766Z,1011.31
2017-12-30T03:29:54.846Z,1011.27
2017-12-30T03:30:54.875Z,1011.21
2017-12-30T03:31:54.985Z,1011.2
2017-12-30T03:32:55.089Z,1011.18
2017-12-30T03:33:55.309Z,1011.18
2017-12-30T03:34:55.332Z,1011.09
2017-12-30T03:35:55.400Z,1011.08
2017-12-30T03:36:55.357Z,1011.08
2017-12-30T03:37:55.209Z,1011.06
2017-12-30T03:38:55.191Z,1010.97
2017-12-30T03:39:55.303Z,1010.98
2017-12-30T03:40:55.102Z,1011
2017-12-30T03:41:55.252Z,1010.99
2017-12-30T03:42:55.383Z,1011
2017-12-30T03:43:55.568Z,1011.01
2017-12-30T03:44:55.731Z,1011
2017-12-30T03:45:55.607Z,1011.03
2017-12-30T03:46:55.437Z,1011.01
2017-12-30T03:47:55.526Z,1010.99
2017-12-30T03:48:55.412Z,1010.97
2017-12-30T03:49:54.348Z,1010.98
2017-12-30T03:52:57.335Z,1010.92
2017-12-30T03:53:54.535Z,1011
2017-12-30T03:54:54.545Z,1011.02
2017-12-30T03:55:54.668Z,1011.04
2017-12-30T03:56:54.874Z,1011
2017-12-30T03:57:54.876Z,1010.99
2017-12-30T03:58:55.275Z,1010.95
2017-12-30T03:59:55.347Z,1010.92
2017-12-30T04:00:54.455Z,1010.9
2017-12-30T04:01:54.344Z,1010.89
2017-12-30T04:02:54.458Z,1010.89
2017-12-30T04:03:54.559Z,1010.86
2017-12-30T04:04:54.665Z,1010.92
2017-12-30T04:05:54.588Z,1010.87
2017-12-30T04:06:54.646Z,1010.9
2017-12-30T04:07:54.476Z,1010.88
2017-12-30T04:08:54.502Z,1010.85
2017-12-30T04:09:54.477Z,1010.84
2017-12-30T04:10:54.640Z,1010.83
2017-12-30T04:11:54.555Z,1010.81
2017-12-30T04:12:54.768Z,1010.8
2017-12-30T04:13:55.262Z,1010.79
2017-12-30T04:14:54.400Z,1010.8
2017-12-30T04:15:55.406Z,1010.74
2017-12-30T04:16:54.518Z,1010.79
2017-12-30T04:17:54.659Z,1010.83
2017-12-30T04:18:54.719Z,1010.79
2017-12-30T04:19:54.703Z,1010.72
2017-12-30T04:20:54.860Z,1010.7
2017-12-30T04:21:54.856Z,1010.7
2017-12-30T04:22:54.875Z,1010.69
2017-12-30T04:23:54.973Z,1010.65
2017-12-30T04:24:55.163Z,1010.67
2017-12-30T04:25:55.107Z,1010.62
2017-12-30T04:26:55.110Z,1010.57
2017-12-30T04:27:55.452Z,1010.57
2017-12-30T04:28:55.545Z,1010.57
2017-12-30T04:29:55.478Z,1010.53
2017-12-30T04:30:55.449Z,1010.56
2017-12-30T04:31:55.615Z,1010.64
2017-12-30T04:32:54.831Z,1010.58
2017-12-30T04:33:54.842Z,1010.62
2017-12-30T04:34:54.693Z,1010.66
2017-12-30T04:35:54.645Z,1010.64
2017-12-30T04:36:54.684Z,1010.62
2017-12-30T04:37:54.780Z,1010.61
2017-12-30T04:38:54.745Z,1010.59
2017-12-30T04:39:55.696Z,1010.54
2017-12-30T04:40:54.813Z,1010.47
2017-12-30T04:41:54.661Z,1010.46
2017-12-30T04:42:55.634Z,1010.41
2017-12-30T04:43:54.681Z,1010.37
2017-12-30T04:44:54.655Z,1010.34
2017-12-30T04:45:55.569Z,1010.32
2017-12-30T04:46:54.777Z,1010.3
2017-12-30T04:47:54.785Z,1010.26
2017-12-30T04:48:54.774Z,1010.24
2017-12-30T04:49:55.650Z,1010.23
2017-12-30T04:50:55.713Z,1010.22
2017-12-30T04:51:54.829Z,1010.18
2017-12-30T04:52:55.691Z,1010.19
2017-12-30T04:53:54.847Z,1010.2
2017-12-30T04:54:54.857Z,1010.2
2017-12-30T04:55:54.846Z,1010.18
2017-12-30T04:56:55.458Z,1010.21
2017-12-30T04:57:55.369Z,1010.17
2017-12-30T04:58:55.393Z,1010.2
2017-12-30T04:59:55.689Z,1010.22
2017-12-30T05:00:54.771Z,1010.27
2017-12-30T05:01:54.688Z,1010.26
2017-12-30T05:02:55.497Z,1010.24
2017-12-30T05:04:04.104Z,1010.2
2017-12-30T05:04:55.259Z,1010.21
2017-12-30T05:05:55.287Z,1010.23
2017-12-30T05:06:55.304Z,1010.22
2017-12-30T05:07:55.303Z,1010.27
2017-12-30T05:08:55.335Z,1010.27
2017-12-30T05:09:55.420Z,1010.26
2017-12-30T05:10:55.730Z,1010.22
2017-12-30T05:11:54.808Z,1010.15
2017-12-30T05:12:54.845Z,1010.13
2017-12-30T05:13:54.998Z,1010.14
2017-12-30T05:14:54.983Z,1010.21
2017-12-30T05:15:54.886Z,1010.18
2017-12-30T05:16:54.830Z,1010.23
2017-12-30T05:17:54.796Z,1010.22
2017-12-30T05:18:54.759Z,1010.2
2017-12-30T05:19:54.717Z,1010.19
2017-12-30T05:20:55.739Z,1010.24
2017-12-30T05:21:54.862Z,1010.2
2017-12-30T05:22:54.861Z,1010.15
2017-12-30T05:23:54.856Z,1010.05
2017-12-30T05:24:54.752Z,1010.05
2017-12-30T05:25:54.816Z,1010.03
2017-12-30T05:26:54.835Z,1010.11
2017-12-30T05:27:54.932Z,1010.14
2017-12-30T05:28:55.167Z,1010.11
2017-12-30T05:29:55.253Z,1010.1
2017-12-30T05:30:55.015Z,1010.09
2017-12-30T05:31:54.898Z,1010.08
2017-12-30T05:32:55.598Z,1010.07
2017-12-30T05:33:55.948Z,1010.06
2017-12-30T05:34:55.010Z,1010.06
2017-12-30T05:35:54.879Z,1010.03
2017-12-30T05:36:54.811Z,1009.99
2017-12-30T05:37:55.718Z,1009.93
2017-12-30T05:38:54.815Z,1009.88
2017-12-30T05:39:54.863Z,1009.91
2017-12-30T05:40:54.819Z,1009.9
2017-12-30T05:41:54.698Z,1009.86
2017-12-30T05:42:55.687Z,1009.86
2017-12-30T05:43:54.796Z,1009.81
2017-12-30T05:44:54.929Z,1009.87
2017-12-30T05:45:54.798Z,1009.91
2017-12-30T05:46:55.657Z,1009.95
2017-12-30T05:47:55.734Z,1009.93
2017-12-30T05:48:54.899Z,1010
2017-12-30T05:49:54.957Z,1009.96
2017-12-30T05:50:54.994Z,1009.97
2017-12-30T05:51:54.990Z,1009.93
2017-12-30T05:52:54.909Z,1009.86
2017-12-30T05:53:54.816Z,1009.9
2017-12-30T05:54:53.992Z,1009.93
2017-12-30T05:55:55.008Z,1009.95
2017-12-30T05:56:54.947Z,1009.96
2017-12-30T05:57:54.840Z,1009.93
2017-12-30T05:58:54.744Z,1009.94
2017-12-30T05:59:54.481Z,1009.93
2017-12-30T06:00:54.365Z,1009.92
2017-12-30T06:01:54.311Z,1009.85
2017-12-30T06:02:54.381Z,1009.85
2017-12-30T06:03:54.279Z,1009.81
2017-12-30T06:04:54.296Z,1009.85
2017-12-30T06:05:54.251Z,1009.87
2017-12-30T06:06:54.449Z,1009.93
2017-12-30T06:07:54.614Z,1009.81
2017-12-30T06:08:54.841Z,1009.86
2017-12-30T06:09:54.943Z,1009.84
2017-12-30T06:10:54.382Z,1009.85
2017-12-30T06:11:54.402Z,1009.76
2017-12-30T06:12:54.538Z,1009.76
2017-12-30T06:13:54.620Z,1009.8
2017-12-30T06:14:54.695Z,1009.63
2017-12-30T06:15:54.634Z,1009.65
2017-12-30T06:16:54.599Z,1009.74
2017-12-30T06:17:54.515Z,1009.67
2017-12-30T06:18:54.525Z,1009.81
2017-12-30T06:19:54.416Z,1009.8
2017-12-30T06:20:54.554Z,1009.86
2017-12-30T06:21:54.749Z,1009.88
2017-12-30T06:22:53.897Z,1009.95
2017-12-30T06:23:54.896Z,1009.9
2017-12-30T06:24:53.967Z,1009.95
2017-12-30T06:25:54.059Z,1009.94
2017-12-30T06:26:54.477Z,1009.89
2017-12-30T06:27:54.580Z,1009.88
2017-12-30T06:28:54.456Z,1009.93
2017-12-30T06:29:54.513Z,1009.9
2017-12-30T06:30:54.513Z,1009.85
2017-12-30T06:31:54.322Z,1009.89
2017-12-30T06:32:54.556Z,1009.86
2017-12-30T06:33:54.784Z,1009.89
2017-12-30T06:34:54.925Z,1009.91
2017-12-30T06:35:53.962Z,1009.96
2017-12-30T06:36:53.965Z,1009.92
2017-12-30T06:37:54.109Z,1009.94
2017-12-30T06:38:54.226Z,1009.83
2017-12-30T06:39:54.493Z,1009.8
2017-12-30T06:40:54.371Z,1009.8
2017-12-30T06:41:54.510Z,1009.83
2017-12-30T06:42:54.385Z,1009.88
2017-12-30T06:43:54.290Z,1009.9
2017-12-30T06:44:54.168Z,1009.86
2017-12-30T06:45:54.196Z,1009.82
2017-12-30T06:46:54.018Z,1009.71
2017-12-30T06:47:54.272Z,1009.7
2017-12-30T06:48:54.158Z,1009.75
2017-12-30T06:49:54.179Z,1009.7
2017-12-30T06:50:54.343Z,1009.76
2017-12-30T06:51:54.393Z,1009.71
2017-12-30T06:52:54.414Z,1009.63
2017-12-30T06:53:54.387Z,1009.59
2017-12-30T06:54:55.356Z,1009.6
2017-12-30T06:55:54.408Z,1009.69
2017-12-30T06:56:55.419Z,1009.72
2017-12-30T06:57:54.717Z,1009.72
2017-12-30T06:58:54.637Z,1009.66
2017-12-30T06:59:54.734Z,1009.6
2017-12-30T07:00:54.631Z,1009.59
2017-12-30T07:01:54.648Z,1009.66
2017-12-30T07:02:54.461Z,1009.56
2017-12-30T07:03:55.379Z,1009.59
2017-12-30T07:04:54.412Z,1009.53
2017-12-30T07:05:55.334Z,1009.42
2017-12-30T07:06:55.405Z,1009.35
2017-12-30T07:07:54.626Z,1009.45
2017-12-30T07:08:54.493Z,1009.42
2017-12-30T07:09:54.555Z,1009.53
2017-12-30T07:10:54.970Z,1009.58
2017-12-30T07:13:55.139Z,1009.38
2017-12-30T07:14:55.270Z,1009.3
2017-12-30T07:15:55.327Z,1009.25
2017-12-30T07:16:55.492Z,1009.21
2017-12-30T07:17:55.004Z,1009.17
2017-12-30T07:18:55.101Z,1009.14
2017-12-30T07:19:55.241Z,1009.08
2017-12-30T07:20:55.184Z,1009.06
2017-12-30T07:21:55.318Z,1009
2017-12-30T07:22:55.289Z,1009.05
2017-12-30T07:23:55.206Z,1009.06
2017-12-30T07:24:55.226Z,1009.11
2017-12-30T07:25:54.560Z,1009.05
2017-12-30T07:26:54.692Z,1009.05
2017-12-30T07:27:54.899Z,1009.06
2017-12-30T07:28:54.444Z,1009.03
2017-12-30T07:29:55.283Z,1009.04
2017-12-30T07:30:55.308Z,1008.95
2017-12-30T07:31:55.452Z,1008.94
2017-12-30T07:32:54.441Z,1008.88
2017-12-30T07:33:54.373Z,1008.84
2017-12-30T07:34:55.269Z,1008.86
2017-12-30T07:35:54.324Z,1008.86
2017-12-30T07:36:55.297Z,1008.86
2017-12-30T07:37:54.358Z,1008.86
2017-12-30T07:38:55.231Z,1008.91
2017-12-30T07:39:55.229Z,1008.88
2017-12-30T07:40:55.169Z,1008.83
2017-12-30T07:41:55.219Z,1008.8
2017-12-30T07:42:55.277Z,1008.72
2017-12-30T07:43:54.517Z,1008.73
2017-12-30T07:44:54.312Z,1008.7
2017-12-30T07:45:55.253Z,1008.72
2017-12-30T07:48:02.681Z,1008.67
2017-12-30T07:48:54.649Z,1008.64
2017-12-30T07:49:54.669Z,1008.62
2017-12-30T07:50:54.661Z,1008.54
2017-12-30T07:51:54.498Z,1008.47
2017-12-30T07:52:54.583Z,1008.45
2017-12-30T07:53:54.793Z,1008.43
2017-12-30T07:54:55.616Z,1008.37
2017-12-30T07:55:55.531Z,1008.39
2017-12-30T07:56:55.381Z,1008.39
2017-12-30T07:57:55.461Z,1008.45
2017-12-30T07:58:55.384Z,1008.48
2017-12-30T07:59:55.521Z,1008.47
2017-12-30T08:00:55.488Z,1008.47
2017-12-30T08:01:55.500Z,1008.46
2017-12-30T08:02:55.396Z,1008.47
2017-12-30T08:03:55.630Z,1008.5
2017-12-30T08:04:55.622Z,1008.49
2017-12-30T08:05:55.678Z,1008.53
2017-12-30T08:06:55.537Z,1008.5
2017-12-30T08:07:55.525Z,1008.45
2017-12-30T08:08:55.593Z,1008.43
2017-12-30T08:09:55.804Z,1008.38
2017-12-30T08:10:54.911Z,1008.4
2017-12-30T08:11:54.946Z,1008.34
2017-12-30T08:12:55.070Z,1008.27
2017-12-30T08:13:55.142Z,1008.28
2017-12-30T08:14:55.188Z,1008.24
2017-12-30T08:15:55.231Z,1008.25
2017-12-30T08:16:55.218Z,1008.2
2017-12-30T08:17:55.166Z,1008.13
2017-12-30T08:18:55.377Z,1008.13
2017-12-30T08:19:55.298Z,1008.19
2017-12-30T08:20:55.305Z,1008.15
2017-12-30T08:21:55.385Z,1008.15
2017-12-30T08:22:55.545Z,1008.17
2017-12-30T08:23:55.822Z,1008.15
2017-12-30T08:24:54.793Z,1008.19
2017-12-30T08:25:55.626Z,1008.15
2017-12-30T08:26:55.800Z,1008.14
2017-12-30T08:27:54.851Z,1008.16
2017-12-30T08:28:55.599Z,1008.16
2017-12-30T08:29:55.356Z,1008.1
2017-12-30T08:30:55.248Z,1008.09
2017-12-30T08:31:55.348Z,1008.07
2017-12-30T08:32:55.371Z,1008.06
2017-12-30T08:33:55.582Z,1008.04
2017-12-30T08:34:55.561Z,1008.03
2017-12-30T08:35:54.896Z,1007.96
2017-12-30T08:36:55.077Z,1007.92
2017-12-30T08:37:55.111Z,1007.91
2017-12-30T08:38:55.294Z,1007.93
2017-12-30T08:39:55.387Z,1007.94
2017-12-30T08:40:55.512Z,1007.91
2017-12-30T08:41:55.635Z,1007.86
2017-12-30T08:43:57.586Z,1007.81
2017-12-30T08:44:55.519Z,1007.82
2017-12-30T08:45:54.806Z,1007.79
2017-12-30T08:46:55.887Z,1007.79
2017-12-30T08:47:54.855Z,1007.78
2017-12-30T08:48:55.830Z,1007.82
2017-12-30T08:49:55.183Z,1007.8
2017-12-30T08:50:55.016Z,1007.77
2017-12-30T08:51:55.260Z,1007.76
2017-12-30T08:52:55.268Z,1007.71
2017-12-30T08:53:55.381Z,1007.75
2017-12-30T08:54:55.632Z,1007.71
2017-12-30T08:55:54.870Z,1007.77
2017-12-30T08:56:54.835Z,1007.8
2017-12-30T08:57:54.914Z,1007.82
2017-12-30T08:58:54.967Z,1007.83
2017-12-30T08:59:55.054Z,1007.75
2017-12-30T09:00:55.317Z,1007.8
2017-12-30T09:01:54.295Z,1007.75
2017-12-30T09:02:55.207Z,1007.68
2017-12-30T09:03:55.234Z,1007.67
2017-12-30T09:04:55.085Z,1007.59
2017-12-30T09:05:55.158Z,1007.63
2017-12-30T09:06:55.180Z,1007.56
2017-12-30T09:07:55.365Z,1007.52
2017-12-30T09:08:54.596Z,1007.51
2017-12-30T09:09:54.626Z,1007.48
2017-12-30T09:10:55.198Z,1007.47
2017-12-30T09:11:55.173Z,1007.52
2017-12-30T09:12:55.340Z,1007.58
2017-12-30T09:13:54.585Z,1007.59
2017-12-30T09:14:54.621Z,1007.56
2017-12-30T09:15:55.121Z,1007.55
2017-12-30T09:16:55.181Z,1007.48
2017-12-30T09:17:55.295Z,1007.48
2017-12-30T09:18:55.162Z,1007.5
2017-12-30T09:19:54.571Z,1007.45
2017-12-30T09:20:54.902Z,1007.4
2017-12-30T09:21:55.049Z,1007.48
2017-12-30T09:22:55.147Z,1007.47
2017-12-30T09:24:54.756Z,1007.44
2017-12-30T09:25:54.986Z,1007.48
2017-12-30T09:26:54.132Z,1007.4
2017-12-30T09:27:54.118Z,1007.35
2017-12-30T09:28:54.192Z,1007.31
2017-12-30T09:29:54.143Z,1007.41
2017-12-30T09:30:54.025Z,1007.43
2017-12-30T09:31:54.095Z,1007.42
2017-12-30T09:32:54.128Z,1007.42
2017-12-30T09:33:54.149Z,1007.38
2017-12-30T09:34:54.445Z,1007.37
2017-12-30T09:35:54.492Z,1007.3
2017-12-30T09:36:54.450Z,1007.25
2017-12-30T09:37:54.518Z,1007.19
2017-12-30T09:38:54.705Z,1007.13
2017-12-30T09:39:54.818Z,1007.16
2017-12-30T09:40:54.376Z,1007.09
2017-12-30T09:41:54.323Z,1007.21
2017-12-30T09:42:54.389Z,1007.19
2017-12-30T09:43:54.414Z,1007.18
2017-12-30T09:44:54.462Z,1007.17
2017-12-30T09:45:54.580Z,1007.13
2017-12-30T09:46:54.626Z,1007.18
2017-12-30T09:47:54.538Z,1007.15
2017-12-30T09:48:54.568Z,1007.15
2017-12-30T09:49:54.420Z,1007.17
2017-12-30T09:50:54.391Z,1007.2
2017-12-30T09:51:54.340Z,1007.2
2017-12-30T09:52:54.441Z,1007.18
2017-12-30T09:53:54.694Z,1007.08
2017-12-30T09:54:54.804Z,1007.11
2017-12-30T09:55:54.830Z,1007.1
2017-12-30T09:56:54.870Z,1007.07
2017-12-30T09:57:54.830Z,1007.04
2017-12-30T09:58:55.028Z,1006.97
2017-12-30T09:59:55.002Z,1006.89
2017-12-30T10:00:55.062Z,1006.9
2017-12-30T10:01:55.012Z,1006.93
2017-12-30T10:02:55.010Z,1006.87
2017-12-30T10:03:54.900Z,1006.82
2017-12-30T10:04:55.777Z,1006.82
2017-12-30T10:05:54.906Z,1006.78
2017-12-30T10:06:56.011Z,1006.75
2017-12-30T10:07:55.052Z,1006.68
2017-12-30T10:08:55.029Z,1006.69
2017-12-30T10:09:55.038Z,1006.7
2017-12-30T10:10:54.969Z,1006.61
2017-12-30T10:11:54.937Z,1006.65
2017-12-30T10:12:54.817Z,1006.61
2017-12-30T10:13:55.040Z,1006.66
2017-12-30T10:14:54.993Z,1006.63
2017-12-30T10:15:55.228Z,1006.62
2017-12-30T10:16:55.275Z,1006.62
2017-12-30T10:17:55.363Z,1006.62
2017-12-30T10:18:55.436Z,1006.65
2017-12-30T10:19:55.387Z,1006.61
2017-12-30T10:20:55.813Z,1006.58
2017-12-30T10:21:55.046Z,1006.58
2017-12-30T10:22:55.019Z,1006.54
2017-12-30T10:23:56.363Z,1006.51
2017-12-30T10:24:55.459Z,1006.43
2017-12-30T10:25:55.720Z,1006.4
2017-12-30T10:26:54.840Z,1006.43
2017-12-30T10:27:54.852Z,1006.47
2017-12-30T10:28:54.879Z,1006.46
2017-12-30T10:29:55.705Z,1006.47
2017-12-30T10:30:55.795Z,1006.45
2017-12-30T10:31:55.125Z,1006.44
2017-12-30T10:32:55.053Z,1006.44
2017-12-30T10:33:55.099Z,1006.34
2017-12-30T10:34:55.396Z,1006.3
2017-12-30T10:35:55.301Z,1006.38
2017-12-30T10:36:55.509Z,1006.37
2017-12-30T10:37:55.552Z,1006.31
2017-12-30T10:38:55.485Z,1006.3
2017-12-30T10:39:55.450Z,1006.37
2017-12-30T10:40:55.593Z,1006.4
2017-12-30T10:41:55.433Z,1006.45
2017-12-30T10:42:55.598Z,1006.5
2017-12-30T10:43:55.771Z,1006.51
2017-12-30T10:44:55.697Z,1006.48
2017-12-30T10:45:58.388Z,1006.44
2017-12-30T10:46:55.536Z,1006.54
2017-12-30T10:47:55.426Z,1006.57
2017-12-30T10:48:29.275Z,1006.57
2017-12-30T10:49:29.336Z,1006.55
2017-12-30T10:50:29.589Z,1006.56
2017-12-30T10:51:29.531Z,1006.56
2017-12-30T10:52:29.645Z,1006.59
2017-12-30T10:53:29.778Z,1006.62
2017-12-30T10:54:28.983Z,1006.68
2017-12-30T10:55:29.182Z,1006.71
2017-12-30T10:56:29.476Z,1006.69
2017-12-30T10:57:29.483Z,1006.68
2017-12-30T10:58:29.644Z,1006.76
2017-12-30T10:59:29.523Z,1006.8
2017-12-30T11:00:29.487Z,1006.71
2017-12-30T11:01:29.534Z,1006.74
2017-12-30T11:02:29.710Z,1006.69
2017-12-30T11:03:28.770Z,1006.67
2017-12-30T11:04:28.754Z,1006.58
2017-12-30T11:05:28.588Z,1006.59
2017-12-30T11:06:29.573Z,1006.57
2017-12-30T11:07:29.524Z,1006.56
2017-12-30T11:08:29.634Z,1006.6
2017-12-30T11:09:28.837Z,1006.52
2017-12-30T11:10:28.880Z,1006.51
2017-12-30T11:11:30.016Z,1006.46
2017-12-30T11:12:29.101Z,1006.47
2017-12-30T11:13:29.121Z,1006.47
2017-12-30T11:14:29.003Z,1006.45
2017-12-30T11:15:28.869Z,1006.42
2017-12-30T11:16:28.970Z,1006.46
2017-12-30T11:17:28.902Z,1006.41
2017-12-30T11:18:29.001Z,1006.39
2017-12-30T11:19:28.301Z,1006.44
2017-12-30T11:20:28.244Z,1006.44
2017-12-30T11:21:28.216Z,1006.48
2017-12-30T11:22:28.177Z,1006.48
2017-12-30T11:23:28.178Z,1006.53
2017-12-30T11:24:28.444Z,1006.48
2017-12-30T11:25:28.711Z,1006.4
2017-12-30T11:26:28.785Z,1006.36
2017-12-30T11:27:28.891Z,1006.28
2017-12-30T11:28:28.801Z,1006.37
2017-12-30T11:29:28.878Z,1006.43
2017-12-30T11:30:28.160Z,1006.51
2017-12-30T11:31:28.105Z,1006.54
2017-12-30T11:32:28.029Z,1006.39
2017-12-30T11:33:28.966Z,1006.41
2017-12-30T11:34:28.110Z,1006.38
2017-12-30T11:35:27.996Z,1006.35
2017-12-30T11:36:28.284Z,1006.35
2017-12-30T11:37:28.197Z,1006.32
2017-12-30T11:38:28.186Z,1006.33
2017-12-30T11:39:28.055Z,1006.3
2017-12-30T11:40:28.086Z,1006.32
2017-12-30T11:41:28.094Z,1006.3
2017-12-30T11:42:28.114Z,1006.26
2017-12-30T11:43:28.222Z,1006.34
2017-12-30T11:44:28.252Z,1006.26
2017-12-30T11:45:28.262Z,1006.24
2017-12-30T11:46:28.486Z,1006.15
2017-12-30T11:47:28.706Z,1006.08
2017-12-30T11:48:28.743Z,1006.08
2017-12-30T11:49:28.791Z,1006.13
2017-12-30T11:50:29.097Z,1006.15
2017-12-30T11:51:28.950Z,1006.15
2017-12-30T11:52:29.102Z,1006.15
2017-12-30T11:53:28.938Z,1006.08
2017-12-30T11:54:29.003Z,1006.04
2017-12-30T11:55:29.216Z,1005.99
2017-12-30T11:56:29.214Z,1006.05
2017-12-30T11:57:29.154Z,1005.99
2017-12-30T11:58:28.892Z,1006.04
2017-12-30T11:59:28.980Z,1006.01
2017-12-30T12:00:28.985Z,1006.03
2017-12-30T12:01:28.872Z,1006.05
2017-12-30T12:02:28.981Z,1006.13
2017-12-30T12:03:28.960Z,1006.03
2017-12-30T12:04:29.082Z,1006.11
2017-12-30T12:05:29.458Z,1006.16
2017-12-30T12:06:29.625Z,1006.21
2017-12-30T12:07:29.629Z,1006.06
2017-12-30T12:08:29.596Z,1006.21
2017-12-30T12:09:29.566Z,1006.39
2017-12-30T12:10:29.622Z,1006.49
2017-12-30T12:11:29.897Z,1006.56
2017-12-30T12:12:57.783Z,1006.57
2017-12-30T12:13:28.850Z,1006.56
2017-12-30T12:14:28.820Z,1006.43
2017-12-30T12:15:29.021Z,1006.49
2017-12-30T12:16:29.029Z,1006.3
2017-12-30T12:17:29.265Z,1006.25
2017-12-30T12:18:29.295Z,1006.36